createdAt,value
2022-09-24T00:01:16.244Z,101414.13
2022-09-24T00:03:47.012Z,101417.09
2022-09-24T00:06:18.948Z,101412.69
2022-09-24T00:08:47.047Z,101411.88
2022-09-24T00:11:14.055Z,101407.66
2022-09-24T00:13:41.068Z,101403.22
2022-09-24T00:16:13.014Z,101405.66
2022-09-24T00:18:40.042Z,101399.63
2022-09-24T00:21:21.215Z,101399.63
2022-09-24T00:23:53.411Z,101408.44
2022-09-24T00:26:39.391Z,101392.78
2022-09-24T00:29:07.025Z,101399.63
2022-09-24T00:31:33.477Z,101394.78
2022-09-24T00:34:00.935Z,101392.72
2022-09-24T00:36:27.715Z,101388.53
2022-09-24T00:38:56.713Z,101390.31
2022-09-24T00:41:26.729Z,101386.09
2022-09-24T00:43:53.098Z,101384.47
2022-09-24T00:46:37.828Z,101385.47
2022-09-24T00:49:16.477Z,101385.47
2022-09-24T00:51:45.400Z,101383.69
2022-09-24T00:54:18.332Z,101377.00
2022-09-24T00:56:47.387Z,101384.25
2022-09-24T00:59:17.290Z,101368.75
2022-09-24T01:01:46.205Z,101372.16
2022-09-24T01:04:14.723Z,101371.38
2022-09-24T01:06:41.262Z,101368.16
2022-09-24T01:09:08.892Z,101361.50
2022-09-24T01:12:10.775Z,101366.53
2022-09-24T01:14:55.907Z,101359.69
2022-09-24T01:17:33.909Z,101357.91
2022-09-24T01:20:18.458Z,101355.28
2022-09-24T01:22:50.888Z,101355.28
2022-09-24T01:25:30.563Z,101349.63
2022-09-24T01:28:17.272Z,101349.38
2022-09-24T01:30:47.148Z,101339.97
2022-09-24T01:33:19.748Z,101350.22
2022-09-24T01:35:52.247Z,101343.53
2022-09-24T01:38:23.487Z,101337.53
2022-09-24T01:40:51.910Z,101346.16
2022-09-24T01:43:22.681Z,101342.75
2022-09-24T01:45:49.407Z,101337.28
2022-09-24T01:48:21.032Z,101345.50
2022-09-24T01:51:11.851Z,101335.84
2022-09-24T01:53:53.415Z,101332.81
2022-09-24T01:56:28.369Z,101334.59
2022-09-24T01:58:56.728Z,101335.44
2022-09-24T02:01:30.502Z,101325.78
2022-09-24T02:04:00.777Z,101324.34
2022-09-24T02:06:37.855Z,101316.53
2022-09-24T02:09:04.861Z,101320.16
2022-09-24T02:11:33.519Z,101316.91
2022-09-24T02:14:13.020Z,101314.94
2022-09-24T02:16:47.691Z,101314.28
2022-09-24T02:19:17.233Z,101314.66
2022-09-24T02:21:44.741Z,101308.81
2022-09-24T02:24:16.508Z,101305.59
2022-09-24T02:26:43.118Z,101308.19
2022-09-24T02:29:09.573Z,101301.34
2022-09-24T02:31:43.430Z,101306.97
2022-09-24T02:34:22.471Z,101309.59
2022-09-24T02:36:51.863Z,101300.94
2022-09-24T02:39:19.219Z,101299.53
2022-09-24T02:41:49.916Z,101304.75
2022-09-24T02:44:17.496Z,101297.09
2022-09-24T02:46:45.097Z,101299.53
2022-09-24T02:49:12.329Z,101296.91
2022-09-24T02:51:39.073Z,101298.25
2022-09-24T02:54:05.819Z,101298.63
2022-09-24T02:56:32.516Z,101299.47
2022-09-24T02:59:00.359Z,101290.00
2022-09-24T03:01:26.870Z,101294.63
2022-09-24T03:03:53.379Z,101296.59
2022-09-24T03:06:19.771Z,101299.38
2022-09-24T03:08:47.030Z,101295.19
2022-09-24T03:11:18.365Z,101298.59
2022-09-24T03:13:45.504Z,101290.75
2022-09-24T03:16:11.926Z,101296.16
2022-09-24T03:18:38.391Z,101291.13
2022-09-24T03:21:08.488Z,101285.72
2022-09-24T03:23:36.056Z,101290.94
2022-09-24T03:26:03.488Z,101285.91
2022-09-24T03:28:30.260Z,101284.50
2022-09-24T03:31:02.656Z,101284.03
2022-09-24T03:33:33.481Z,101285.25
2022-09-24T03:36:02.842Z,101279.38
2022-09-24T03:38:30.299Z,101284.81
2022-09-24T03:40:57.504Z,101286.41
2022-09-24T03:43:24.347Z,101289.81
2022-09-24T03:45:51.197Z,101287.44
2022-09-24T03:48:18.681Z,101290.03
2022-09-24T03:50:46.371Z,101284.00
2022-09-24T03:53:14.270Z,101283.81
2022-09-24T03:56:02.515Z,101283.00
2022-09-24T03:58:31.574Z,101282.00
2022-09-24T04:00:58.486Z,101281.19
2022-09-24T04:03:25.370Z,101282.41
2022-09-24T04:05:52.011Z,101282.41
2022-09-24T04:08:19.716Z,101279.59
2022-09-24T04:10:46.947Z,101277.97
2022-09-24T04:13:13.744Z,101273.56
2022-09-24T04:15:40.489Z,101271.56
2022-09-24T04:18:07.107Z,101275.78
2022-09-24T04:20:34.628Z,101268.97
2022-09-24T04:23:01.660Z,101268.78
2022-09-24T04:25:30.593Z,101272.22
2022-09-24T04:27:59.292Z,101268.78
2022-09-24T04:30:27.163Z,101267.38
2022-09-24T04:32:53.869Z,101267.97
2022-09-24T04:35:21.989Z,101263.56
2022-09-24T04:37:48.745Z,101259.34
2022-09-24T04:40:16.195Z,101252.13
2022-09-24T04:42:46.242Z,101265.97
2022-09-24T04:45:14.315Z,101265.97
2022-09-24T04:47:40.909Z,101264.19
2022-09-24T04:50:09.616Z,101265.00
2022-09-24T04:52:35.970Z,101258.97
2022-09-24T04:55:02.546Z,101267.59
2022-09-24T04:57:34.996Z,101266.63
2022-09-24T05:00:04.476Z,101266.63
2022-09-24T05:02:31.346Z,101271.19
2022-09-24T05:04:57.761Z,101280.66
2022-09-24T05:07:24.196Z,101266.63
2022-09-24T05:09:50.658Z,101276.22
2022-09-24T05:12:17.006Z,101270.81
2022-09-24T05:14:43.348Z,101282.09
2022-09-24T05:17:09.684Z,101280.47
2022-09-24T05:19:36.052Z,101270.03
2022-09-24T05:22:02.444Z,101276.03
2022-09-24T05:24:28.790Z,101280.28
2022-09-24T05:27:10.490Z,101284.69
2022-09-24T05:29:42.296Z,101281.63
2022-09-24T05:32:14.166Z,101277.25
2022-09-24T05:34:42.826Z,101289.06
2022-09-24T05:37:10.170Z,101284.88
2022-09-24T05:39:36.498Z,101285.84
2022-09-24T05:42:08.243Z,101285.84
2022-09-24T05:44:34.725Z,101292.06
2022-09-24T05:47:01.126Z,101291.88
2022-09-24T05:49:27.557Z,101280.47
2022-09-24T05:51:53.975Z,101286.09
2022-09-24T05:54:20.362Z,101287.72
2022-09-24T05:56:47.267Z,101291.50
2022-09-24T05:59:13.610Z,101295.72
2022-09-24T06:01:40.283Z,101288.72
2022-09-24T06:04:09.104Z,101297.34
2022-09-24T06:06:35.797Z,101287.91
2022-09-24T06:09:02.176Z,101287.72
2022-09-24T06:11:29.525Z,101292.94
2022-09-24T06:13:55.869Z,101295.53
2022-09-24T06:16:22.299Z,101300.75
2022-09-24T06:18:48.722Z,101290.50
2022-09-24T06:21:17.836Z,101301.75
2022-09-24T06:23:47.092Z,101299.75
2022-09-24T06:26:14.377Z,101303.19
2022-09-24T06:28:41.817Z,101307.41
2022-09-24T06:31:09.713Z,101309.19
2022-09-24T06:33:37.575Z,101313.63
2022-09-24T06:36:05.056Z,101306.59
2022-09-24T06:38:31.855Z,101312.59
2022-09-24T06:41:00.696Z,101314.41
2022-09-24T06:43:27.517Z,101317.03
2022-09-24T06:45:58.194Z,101312.78
2022-09-24T06:48:26.375Z,101315.22
2022-09-24T06:50:52.850Z,101325.09
2022-09-24T06:53:20.906Z,101325.75
2022-09-24T06:55:47.805Z,101326.34
2022-09-24T06:58:17.494Z,101326.97
2022-09-24T07:00:51.166Z,101332.38
2022-09-24T07:03:17.544Z,101325.59
2022-09-24T07:05:44.169Z,101330.88
2022-09-24T07:08:11.076Z,101329.50
2022-09-24T07:10:40.649Z,101327.34
2022-09-24T07:13:06.987Z,101337.78
2022-09-24T07:15:33.405Z,101340.00
2022-09-24T07:17:59.752Z,101342.25
2022-09-24T07:20:29.024Z,101335.06
2022-09-24T07:22:58.291Z,101338.28
2022-09-24T07:25:24.696Z,101337.91
2022-09-24T07:27:51.193Z,101335.53
2022-09-24T07:30:17.644Z,101340.78
2022-09-24T07:32:44.075Z,101341.66
2022-09-24T07:35:10.434Z,101345.69
2022-09-24T07:37:37.027Z,101348.34
2022-09-24T07:40:03.504Z,101348.16
2022-09-24T07:42:29.855Z,101349.59
2022-09-24T07:44:57.083Z,101344.78
2022-09-24T07:47:23.530Z,101346.59
2022-09-24T07:49:49.913Z,101356.66
2022-09-24T07:52:16.248Z,101356.66
2022-09-24T07:54:42.581Z,101353.88
2022-09-24T07:57:13.549Z,101355.66
2022-09-24T07:59:40.672Z,101360.63
2022-09-24T08:02:17.845Z,101358.63
2022-09-24T08:04:44.620Z,101365.91
2022-09-24T08:07:12.762Z,101368.94
2022-09-24T08:09:39.691Z,101368.94
2022-09-24T08:12:07.866Z,101364.72
2022-09-24T08:14:34.239Z,101364.09
2022-09-24T08:17:02.658Z,101369.13
2022-09-24T08:19:30.912Z,101369.53
2022-09-24T08:21:58.252Z,101375.50
2022-09-24T08:24:24.691Z,101374.13
2022-09-24T08:26:51.081Z,101374.75
2022-09-24T08:29:18.118Z,101372.16
2022-09-24T08:31:44.734Z,101384.38
2022-09-24T08:34:11.165Z,101375.50
2022-09-24T08:36:42.654Z,101382.34
2022-09-24T08:39:09.373Z,101386.56
2022-09-24T08:41:56.102Z,101387.56
2022-09-24T08:45:00.107Z,101395.75
2022-09-24T08:47:36.811Z,101388.72
2022-09-24T08:50:17.394Z,101394.31
2022-09-24T08:52:43.745Z,101398.88
2022-09-24T08:55:27.710Z,101399.53
2022-09-24T08:58:16.879Z,101401.19
2022-09-24T09:01:07.376Z,101412.03
2022-09-24T09:03:40.167Z,101409.97
2022-09-24T09:06:32.289Z,101416.00
2022-09-24T09:09:15.014Z,101417.44
2022-09-24T09:11:46.497Z,101413.81
2022-09-24T09:14:41.796Z,101424.69
2022-09-24T09:17:38.829Z,101420.50
2022-09-24T09:20:42.919Z,101433.38
2022-09-24T09:23:46.941Z,101432.31
2022-09-24T09:26:16.099Z,101426.50
2022-09-24T09:28:44.913Z,101432.50
2022-09-24T09:34:31.227Z,101438.56
2022-09-24T09:37:25.879Z,101437.72
2022-09-24T09:40:26.584Z,101447.94
2022-09-24T09:43:04.883Z,101449.75
2022-09-24T09:45:48.225Z,101449.75
2022-09-24T09:48:43.490Z,101454.53
2022-09-24T09:51:22.407Z,101447.88
2022-09-24T09:54:03.360Z,101446.09
2022-09-24T09:56:50.646Z,101446.47
2022-09-24T09:59:28.866Z,101445.47
2022-09-24T10:01:59.500Z,101448.25
2022-09-24T10:04:41.964Z,101446.66
2022-09-24T10:07:40.244Z,101448.25
2022-09-24T10:10:47.280Z,101450.50
2022-09-24T10:14:13.322Z,101455.34
2022-09-24T10:16:52.468Z,101451.50
2022-09-24T10:19:44.282Z,101452.13
2022-09-24T10:22:27.090Z,101455.34
2022-09-24T10:24:57.204Z,101454.53
2022-09-24T10:28:18.070Z,101452.13
2022-09-24T10:31:04.940Z,101451.50
2022-09-24T10:33:40.489Z,101453.53
2022-09-24T10:36:14.736Z,101445.97
2022-09-24T10:38:41.735Z,101448.81
2022-09-24T10:41:36.095Z,101457.06
2022-09-24T10:44:11.761Z,101462.34
2022-09-24T10:47:10.615Z,101461.75
2022-09-24T10:49:58.624Z,101461.19
2022-09-24T10:53:16.534Z,101462.16
2022-09-24T10:56:05.457Z,101470.00
2022-09-24T10:59:17.947Z,101467.56
2022-09-24T11:02:01.394Z,101470.00
2022-09-24T11:04:42.443Z,101473.69
2022-09-24T11:07:44.617Z,101469.44
2022-09-24T11:10:40.666Z,101478.06
2022-09-24T11:13:26.022Z,101477.69
2022-09-24T11:15:53.406Z,101483.53
2022-09-24T11:18:45.855Z,101479.75
2022-09-24T11:21:39.620Z,101476.94
2022-09-24T11:24:34.200Z,101476.75
2022-09-24T11:27:22.204Z,101481.00
2022-09-24T11:30:06.784Z,101479.78
2022-09-24T11:33:22.924Z,101484.22
2022-09-24T11:36:23.169Z,101477.69
2022-09-24T11:38:57.733Z,101481.69
2022-09-24T11:41:55.627Z,101482.44
2022-09-24T11:44:51.748Z,101480.34
2022-09-24T11:47:26.494Z,101482.06
2022-09-24T11:50:23.953Z,101488.69
2022-09-24T11:53:01.611Z,101494.22
2022-09-24T11:55:37.217Z,101492.94
2022-09-24T11:58:58.959Z,101491.06
2022-09-24T12:01:42.890Z,101494.16
2022-09-24T12:04:16.203Z,101493.31
2022-09-24T12:07:01.980Z,101492.25
2022-09-24T12:09:37.110Z,101495.69
2022-09-24T12:12:09.761Z,101493.31
2022-09-24T12:14:52.799Z,101497.91
2022-09-24T12:17:28.165Z,101495.06
2022-09-24T12:20:03.238Z,101494.88
2022-09-24T12:22:32.314Z,101495.84
2022-09-24T12:25:00.366Z,101491.47
2022-09-24T12:27:33.823Z,101493.50
2022-09-24T12:30:47.418Z,101494.16
2022-09-24T12:33:25.866Z,101495.38
2022-09-24T12:36:17.579Z,101496.00
2022-09-24T12:38:50.290Z,101497.75
2022-09-24T12:41:32.888Z,101495.50
2022-09-24T12:44:17.151Z,101494.44
2022-09-24T12:46:54.635Z,101493.69
2022-09-24T12:49:24.015Z,101498.66
2022-09-24T12:51:52.344Z,101499.22
2022-09-24T12:54:32.294Z,101500.94
2022-09-24T12:57:26.045Z,101496.72
2022-09-24T12:59:55.692Z,101508.78
2022-09-24T13:02:33.058Z,101508.16
2022-09-24T13:05:05.237Z,101500.94
2022-09-24T13:07:37.081Z,101502.72
2022-09-24T13:10:15.600Z,101501.19
2022-09-24T13:12:43.238Z,101498.59
2022-09-24T13:15:41.926Z,101503.09
2022-09-24T13:18:11.314Z,101502.34
2022-09-24T13:20:47.614Z,101501.19
2022-09-24T13:23:22.238Z,101502.47
2022-09-24T13:26:01.104Z,101501.91
2022-09-24T13:28:38.224Z,101502.47
2022-09-24T13:31:18.974Z,101501.72
2022-09-24T13:33:49.288Z,101509.16
2022-09-24T13:36:21.375Z,101508.97
2022-09-24T13:39:01.187Z,101505.13
2022-09-24T13:41:46.294Z,101507.19
2022-09-24T13:44:34.450Z,101507.81
2022-09-24T13:47:21.608Z,101518.31
2022-09-24T13:49:51.241Z,101520.19
2022-09-24T13:52:31.812Z,101517.63
2022-09-24T13:55:02.188Z,101512.66
2022-09-24T13:57:29.957Z,101518.50
2022-09-24T14:00:12.784Z,101517.16
2022-09-24T14:02:39.869Z,101519.56
2022-09-24T14:05:16.611Z,101518.41
2022-09-24T14:07:51.748Z,101521.88
2022-09-24T14:10:19.242Z,101524.28
2022-09-24T14:12:46.549Z,101525.09
2022-09-24T14:15:17.433Z,101516.88
2022-09-24T14:17:55.755Z,101518.31
2022-09-24T14:20:22.372Z,101514.31
2022-09-24T14:22:49.304Z,101513.56
2022-09-24T14:25:29.637Z,101522.66
2022-09-24T14:27:59.252Z,101524.91
2022-09-24T14:30:29.367Z,101518.78
2022-09-24T14:33:12.509Z,101517.44
2022-09-24T14:35:40.029Z,101514.00
2022-09-24T14:38:12.480Z,101516.03
2022-09-24T14:40:59.255Z,101522.06
2022-09-24T14:43:50.657Z,101517.50
2022-09-24T14:46:22.286Z,101522.75
2022-09-24T14:48:48.937Z,101529.63
2022-09-24T14:51:27.125Z,101525.41
2022-09-24T14:53:59.621Z,101524.84
2022-09-24T14:56:33.773Z,101522.03
2022-09-24T14:59:00.707Z,101525.84
2022-09-24T15:01:32.871Z,101527.03
2022-09-24T15:04:05.463Z,101530.03
2022-09-24T15:06:38.125Z,101531.78
2022-09-24T15:09:26.771Z,101527.06
2022-09-24T15:11:55.282Z,101528.44
2022-09-24T15:14:27.637Z,101525.19
2022-09-24T15:16:55.325Z,101523.00
2022-09-24T15:19:23.659Z,101530.19
2022-09-24T15:21:56.739Z,101536.97
2022-09-24T15:24:24.273Z,101530.88
2022-09-24T15:27:06.091Z,101538.28
2022-09-24T15:29:32.826Z,101542.88
2022-09-24T15:31:59.303Z,101533.78
2022-09-24T15:34:26.033Z,101546.06
2022-09-24T15:36:55.652Z,101536.78
2022-09-24T15:39:23.309Z,101540.03
2022-09-24T15:41:49.688Z,101539.56
2022-09-24T15:44:28.339Z,101539.38
2022-09-24T15:46:57.947Z,101546.25
2022-09-24T15:49:24.806Z,101543.63
2022-09-24T15:51:54.817Z,101549.47
2022-09-24T15:54:22.172Z,101545.63
2022-09-24T15:56:52.380Z,101543.81
2022-09-24T15:59:20.167Z,101552.06
2022-09-24T16:01:49.547Z,101547.69
2022-09-24T16:04:16.061Z,101549.94
2022-09-24T16:06:43.323Z,101551.53
2022-09-24T16:09:09.942Z,101562.59
2022-09-24T16:11:36.343Z,101556.19
2022-09-24T16:14:02.777Z,101557.19
2022-09-24T16:16:29.253Z,101563.22
2022-09-24T16:18:55.657Z,101564.03
2022-09-24T16:21:22.240Z,101568.88
2022-09-24T16:23:54.257Z,101562.69
2022-09-24T16:26:20.709Z,101566.88
2022-09-24T16:28:49.375Z,101570.31
2022-09-24T16:31:15.981Z,101568.50
2022-09-24T16:33:42.772Z,101578.16
2022-09-24T16:36:09.449Z,101573.50
2022-09-24T16:38:37.127Z,101573.69
2022-09-24T16:41:04.409Z,101584.69
2022-09-24T16:43:31.399Z,101582.44
2022-09-24T16:46:06.736Z,101588.47
2022-09-24T16:48:33.272Z,101585.84
2022-09-24T16:51:11.383Z,101589.53
2022-09-24T16:53:38.537Z,101583.28
2022-09-24T16:56:13.052Z,101584.94
2022-09-24T16:58:41.397Z,101587.72
2022-09-24T17:01:10.305Z,101581.63
2022-09-24T17:03:36.983Z,101587.22
2022-09-24T17:06:04.329Z,101588.75
2022-09-24T17:08:50.331Z,101588.56
2022-09-24T17:11:16.884Z,101584.97
2022-09-24T17:13:43.453Z,101591.56
2022-09-24T17:16:10.260Z,101590.69
2022-09-24T17:18:36.685Z,101598.50
2022-09-24T17:21:06.510Z,101596.72
2022-09-24T17:23:33.499Z,101602.28
2022-09-24T17:26:18.823Z,101603.66
2022-09-24T17:28:46.759Z,101617.09
2022-09-24T17:31:16.089Z,101610.97
2022-09-24T17:33:44.215Z,101605.47
2022-09-24T17:36:12.690Z,101609.47
2022-09-24T17:38:39.420Z,101616.63
2022-09-24T17:41:08.138Z,101619.59
2022-09-24T17:43:35.281Z,101621.38
2022-09-24T17:46:07.625Z,101626.34
2022-09-24T17:48:40.133Z,101615.03
2022-09-24T17:51:13.518Z,101617.16
2022-09-24T17:53:40.508Z,101616.09
2022-09-24T17:56:09.863Z,101628.22
2022-09-24T17:58:38.025Z,101627.16
2022-09-24T18:01:10.371Z,101633.88
2022-09-24T18:03:37.497Z,101638.38
2022-09-24T18:06:06.380Z,101640.06
2022-09-24T18:08:37.052Z,101648.59
2022-09-24T18:11:09.623Z,101649.13
2022-09-24T18:13:36.207Z,101658.25
2022-09-24T18:16:08.965Z,101659.00
2022-09-24T18:18:35.835Z,101664.06
2022-09-24T18:21:03.797Z,101668.47
2022-09-24T18:23:30.634Z,101662.81
2022-09-24T18:26:17.054Z,101664.28
2022-09-24T18:28:49.929Z,101664.66
2022-09-24T18:31:17.859Z,101670.41
2022-09-24T18:33:45.156Z,101676.59
2022-09-24T18:36:14.619Z,101678.56
2022-09-24T18:38:41.306Z,101671.25
2022-09-24T18:41:18.381Z,101673.41
2022-09-24T18:43:44.759Z,101674.25
2022-09-24T18:46:12.947Z,101684.22
2022-09-24T18:48:41.068Z,101680.00
2022-09-24T18:51:14.323Z,101689.13
2022-09-24T18:53:40.679Z,101681.16
2022-09-24T18:56:08.403Z,101686.88
2022-09-24T18:58:35.206Z,101684.63
2022-09-24T19:01:04.346Z,101689.34
2022-09-24T19:03:31.824Z,101688.25
2022-09-24T19:06:04.770Z,101686.16
2022-09-24T19:08:32.040Z,101692.50
2022-09-24T19:11:09.792Z,101687.66
2022-09-24T19:13:38.599Z,101693.19
2022-09-24T19:16:13.745Z,101703.94
2022-09-24T19:18:41.272Z,101693.00
2022-09-24T19:21:09.876Z,101694.97
2022-09-24T19:23:41.934Z,101703.78
2022-09-24T19:26:09.216Z,101701.34
2022-09-24T19:28:36.176Z,101710.28
2022-09-24T19:31:02.626Z,101708.50
2022-09-24T19:33:29.314Z,101709.66
2022-09-24T19:36:04.634Z,101717.28
2022-09-24T19:38:32.918Z,101718.25
2022-09-24T19:41:00.843Z,101721.03
2022-09-24T19:43:29.477Z,101722.19
2022-09-24T19:45:58.787Z,101724.78
2022-09-24T19:48:26.648Z,101722.81
2022-09-24T19:50:54.223Z,101723.78
2022-09-24T19:53:21.197Z,101723.94
2022-09-24T19:55:47.564Z,101720.88
2022-09-24T19:58:14.321Z,101727.88
2022-09-24T20:00:40.655Z,101727.56
2022-09-24T20:03:07.099Z,101717.66
2022-09-24T20:05:33.852Z,101727.38
2022-09-24T20:08:00.429Z,101725.94
2022-09-24T20:10:26.801Z,101729.50
2022-09-24T20:12:54.417Z,101725.47
2022-09-24T20:15:22.138Z,101727.41
2022-09-24T20:17:48.849Z,101725.94
2022-09-24T20:20:15.282Z,101727.88
2022-09-24T20:22:41.665Z,101730.00
2022-09-24T20:25:08.299Z,101725.78
2022-09-24T20:27:53.101Z,101730.31
2022-09-24T20:30:21.293Z,101731.66
2022-09-24T20:32:48.164Z,101735.38
2022-09-24T20:35:15.706Z,101744.16
2022-09-24T20:37:42.631Z,101741.72
2022-09-24T20:40:09.956Z,101735.84
2022-09-24T20:42:39.433Z,101748.22
2022-09-24T20:45:07.034Z,101750.16
2022-09-24T20:47:33.388Z,101747.88
2022-09-24T20:49:59.724Z,101751.75
2022-09-24T20:52:26.063Z,101747.88
2022-09-24T20:54:52.512Z,101750.78
2022-09-24T20:57:18.928Z,101747.72
2022-09-24T20:59:45.286Z,101756.94
2022-09-24T21:02:12.233Z,101749.47
2022-09-24T21:04:38.673Z,101749.28
2022-09-24T21:07:05.544Z,101748.00
2022-09-24T21:09:31.888Z,101747.66
2022-09-24T21:11:58.228Z,101743.59
2022-09-24T21:14:24.645Z,101752.81
2022-09-24T21:16:51.057Z,101744.50
2022-09-24T21:19:17.508Z,101752.63
2022-09-24T21:21:43.896Z,101749.53
2022-09-24T21:24:12.629Z,101754.53
2022-09-24T21:26:39.730Z,101748.84
2022-09-24T21:29:18.602Z,101749.16
2022-09-24T21:31:46.746Z,101754.81
2022-09-24T21:34:15.938Z,101751.88
2022-09-24T21:36:45.396Z,101756.41
2022-09-24T21:39:17.722Z,101750.72
2022-09-24T21:41:45.841Z,101757.34
2022-09-24T21:44:14.375Z,101757.66
2022-09-24T21:46:42.937Z,101756.31
2022-09-24T21:49:11.008Z,101758.72
2022-09-24T21:51:37.805Z,101761.47
2022-09-24T21:54:06.921Z,101760.97
2022-09-24T21:56:35.521Z,101762.09
2022-09-24T21:59:22.565Z,101766.78
2022-09-24T22:01:48.937Z,101761.22
2022-09-24T22:04:15.309Z,101757.34
2022-09-24T22:06:41.651Z,101760.22
2022-09-24T22:09:09.035Z,101758.88
2022-09-24T22:11:36.154Z,101763.44
2022-09-24T22:14:03.381Z,101762.22
2022-09-24T22:16:32.506Z,101760.78
2022-09-24T22:18:59.070Z,101762.88
2022-09-24T22:21:25.872Z,101759.59
2022-09-24T22:23:52.225Z,101762.47
2022-09-24T22:26:19.195Z,101759.38
2022-09-24T22:28:45.828Z,101764.72
2022-09-24T22:31:16.294Z,101759.97
2022-09-24T22:34:02.102Z,101768.88
2022-09-24T22:36:30.466Z,101768.19
2022-09-24T22:38:59.365Z,101763.34
2022-09-24T22:41:28.916Z,101770.44
2022-09-24T22:43:56.795Z,101767.34
2022-09-24T22:46:26.935Z,101765.84
2022-09-24T22:48:54.400Z,101765.34
2022-09-24T22:51:20.839Z,101765.34
2022-09-24T22:53:47.258Z,101770.00
2022-09-24T22:56:16.784Z,101764.16
2022-09-24T22:58:45.081Z,101768.66
2022-09-24T23:01:22.435Z,101770.59
2022-09-24T23:03:51.389Z,101771.72
2022-09-24T23:06:18.413Z,101771.03
2022-09-24T23:08:45.045Z,101771.31
2022-09-24T23:11:17.638Z,101774.06
2022-09-24T23:13:46.337Z,101764.97
2022-09-24T23:16:18.302Z,101758.16
2022-09-24T23:18:47.385Z,101761.72
2022-09-24T23:21:19.497Z,101758.44
2022-09-24T23:23:46.333Z,101752.59
2022-09-24T23:26:16.944Z,101754.69
2022-09-24T23:28:45.723Z,101757.41
2022-09-24T23:31:13.962Z,101758.66
2022-09-24T23:33:41.931Z,101755.41
2022-09-24T23:36:10.666Z,101752.16
2022-09-24T23:38:37.611Z,101748.75
2022-09-24T23:41:05.316Z,101755.31
2022-09-24T23:43:32.644Z,101757.41
2022-09-24T23:45:59.101Z,101762.75
2022-09-24T23:48:25.713Z,101760.59
2022-09-24T23:50:52.357Z,101756.81
2022-09-24T23:53:21.619Z,101760.22
2022-09-24T23:55:49.328Z,101766.03
2022-09-24T23:58:17.327Z,101759.22
